Time;durP1;ratioP1;P1;durP2;ratioP2;P2;SDS_P1;SDS_P2;PMS_P1;PMS_P2;Temp;Humidity;BMP_temperature;BMP_pressure;BME280_temperature;BME280_humidity;BME280_pressure;Samples;Min_cycle;Max_cycle;Signal;HPM_P1;HPM_P2
2021/09/01 00:00:11;;;;;;;8.23;3.90;;;;;;;14.37;100.00;101473.78;5011919;28;20200;-76
2021/09/01 00:02:37;;;;;;;8.23;3.60;;;;;;;14.37;100.00;101481.22;5011845;28;20191;-75
2021/09/01 00:05:03;;;;;;;4.30;3.33;;;;;;;14.39;100.00;101487.22;5011485;28;20264;-75
2021/09/01 00:07:28;;;;;;;4.83;3.87;;;;;;;14.42;100.00;101489.34;5011968;28;20411;-76
2021/09/01 00:09:54;;;;;;;5.67;3.43;;;;;;;14.44;100.00;101487.91;5011617;28;20195;-75
2021/09/01 00:12:19;;;;;;;5.13;3.30;;;;;;;14.41;100.00;101491.25;5011686;28;20180;-76
2021/09/01 00:14:44;;;;;;;4.03;3.60;;;;;;;14.40;100.00;101502.56;5010095;28;20632;-75
2021/09/01 00:17:10;;;;;;;6.23;3.23;;;;;;;14.37;100.00;101500.47;5011539;28;20219;-75
2021/09/01 00:19:35;;;;;;;10.53;3.80;;;;;;;14.35;100.00;101503.53;5011761;28;20652;-76
2021/09/01 00:22:01;;;;;;;5.47;3.47;;;;;;;14.31;100.00;101494.25;5011575;28;20188;-75
2021/09/01 00:24:26;;;;;;;8.90;4.83;;;;;;;14.32;100.00;101490.41;5011239;28;20275;-75
2021/09/01 00:26:52;;;;;;;6.90;3.80;;;;;;;14.34;100.00;101499.16;5011573;28;20200;-75
2021/09/01 00:29:17;;;;;;;7.73;3.73;;;;;;;14.38;100.00;101480.09;5011571;28;20184;-76
2021/09/01 00:31:43;;;;;;;6.73;4.30;;;;;;;14.36;100.00;101496.09;5011379;28;20501;-76
2021/09/01 00:34:08;;;;;;;8.03;3.63;;;;;;;14.40;100.00;101486.09;5011098;28;20185;-76
2021/09/01 00:36:33;;;;;;;7.00;3.80;;;;;;;14.39;100.00;101484.47;5011217;28;20255;-76
2021/09/01 00:38:59;;;;;;;9.67;4.03;;;;;;;14.39;100.00;101482.53;5009682;28;20596;-76
2021/09/01 00:41:25;;;;;;;9.30;4.30;;;;;;;14.38;100.00;101485.59;5011287;28;20589;-75
2021/09/01 00:43:59;;;;;;;6.40;4.30;;;;;;;14.40;100.00;101491.59;5011148;28;20199;-75
2021/09/01 00:46:25;;;;;;;5.03;3.83;;;;;;;14.41;100.00;101484.97;5011257;28;20646;-76
2021/09/01 00:48:51;;;;;;;6.73;3.87;;;;;;;14.39;100.00;101482.53;5011222;28;20176;-76
2021/09/01 00:51:17;;;;;;;8.13;4.17;;;;;;;14.34;100.00;101479.91;5010909;28;20235;-75
2021/09/01 00:53:47;;;;;;;8.23;3.37;;;;;;;14.30;100.00;101482.44;5011031;28;20640;-75
2021/09/01 00:56:22;;;;;;;8.77;3.53;;;;;;;14.29;100.00;101491.81;5011014;28;20172;-75
2021/09/01 00:58:49;;;;;;;9.03;3.63;;;;;;;14.25;100.00;101493.56;5009874;28;20508;-76
2021/09/01 01:01:15;;;;;;;8.20;4.60;;;;;;;14.24;100.00;101483.69;5010979;28;20592;-75
2021/09/01 01:03:54;;;;;;;12.50;5.33;;;;;;;14.23;100.00;101484.00;5010716;28;20553;-75
2021/09/01 01:06:22;;;;;;;3.30;2.97;;;;;;;14.18;100.00;101484.13;5011086;28;20558;-76
2021/09/01 01:08:48;;;;;;;9.63;3.93;;;;;;;14.16;100.00;101487.16;5011072;28;20180;-75
2021/09/01 01:11:14;;;;;;;5.83;4.13;;;;;;;14.17;100.00;101477.00;5010813;28;20204;-76
2021/09/01 01:13:42;;;;;;;8.10;4.23;;;;;;;14.19;100.00;101483.81;5009525;28;20675;-75
2021/09/01 01:16:07;;;;;;;9.30;4.10;;;;;;;14.21;100.00;101484.31;5010775;28;20184;-76
2021/09/01 01:18:33;;;;;;;7.63;4.40;;;;;;;14.23;100.00;101487.56;5010875;28;20184;-76
2021/09/01 01:20:58;;;;;;;13.47;5.63;;;;;;;14.23;100.00;101486.75;5010744;28;20181;-75
2021/09/01 01:23:24;;;;;;;8.17;4.67;;;;;;;14.26;100.00;101478.69;5010839;28;20532;-75
2021/09/01 01:25:53;;;;;;;5.53;4.50;;;;;;;14.27;100.00;101480.31;5010747;28;20176;-76
2021/09/01 01:28:18;;;;;;;4.13;3.47;;;;;;;14.29;100.00;101485.50;5010749;28;20513;-76
2021/09/01 01:30:44;;;;;;;11.50;4.50;;;;;;;14.26;100.00;101483.38;5010536;28;20207;-76
2021/09/01 01:33:09;;;;;;;5.10;4.23;;;;;;;14.25;100.00;101484.50;5010827;28;20184;-76
2021/09/01 01:35:37;;;;;;;7.57;4.23;;;;;;;14.23;100.00;101489.50;5010511;28;20165;-76
2021/09/01 01:38:09;;;;;;;6.53;4.10;;;;;;;14.22;100.00;101485.94;5010741;28;20172;-76
2021/09/01 01:40:35;;;;;;;4.83;4.33;;;;;;;14.23;100.00;101484.81;5010749;28;20823;-76
2021/09/01 01:43:01;;;;;;;12.73;4.57;;;;;;;14.20;100.00;101490.94;5010601;28;20183;-76
2021/09/01 01:45:41;;;;;;;6.97;4.70;;;;;;;14.22;100.00;101491.44;5010501;28;20520;-75
2021/09/01 01:48:08;;;;;;;10.53;4.17;;;;;;;14.23;100.00;101509.56;5013358;28;20169;-76
2021/09/01 01:50:35;;;;;;;6.93;4.60;;;;;;;14.22;100.00;101524.44;5014458;28;20208;-76
2021/09/01 01:53:01;;;;;;;8.47;4.47;;;;;;;14.23;100.00;101525.25;5014192;28;20176;-76
2021/09/01 01:55:26;;;;;;;7.33;4.43;;;;;;;14.20;100.00;101523.94;5014140;28;20584;-76
2021/09/01 01:57:52;;;;;;;5.83;3.97;;;;;;;14.20;100.00;101523.13;5012960;28;20629;-75
2021/09/01 02:00:18;;;;;;;7.20;4.27;;;;;;;14.20;100.00;101523.94;5014501;28;20184;-76
2021/09/01 02:02:43;;;;;;;4.97;4.40;;;;;;;14.22;100.00;101526.38;5014330;28;20219;-76
2021/09/01 02:05:10;;;;;;;10.70;5.10;;;;;;;14.22;100.00;101534.59;5013905;28;20168;-76
2021/09/01 02:07:37;;;;;;;12.60;5.67;;;;;;;14.21;100.00;101531.06;5014188;28;20181;-76
2021/09/01 02:10:05;;;;;;;5.30;4.63;;;;;;;14.20;100.00;101534.09;5014620;28;20196;-75
2021/09/01 02:12:30;;;;;;;17.57;5.60;;;;;;;14.17;100.00;101543.75;5014076;28;20180;-75
2021/09/01 02:14:56;;;;;;;9.70;4.33;;;;;;;14.16;100.00;101530.34;5012655;28;20304;-76
2021/09/01 02:17:22;;;;;;;5.37;4.40;;;;;;;14.14;100.00;101538.88;5013976;28;20273;-75
2021/09/01 02:19:47;;;;;;;7.90;4.97;;;;;;;14.16;100.00;101538.56;5014010;28;20259;-76
2021/09/01 02:22:13;;;;;;;6.00;4.17;;;;;;;14.15;100.00;101535.00;5013954;28;20184;-75
2021/09/01 02:24:38;;;;;;;7.00;4.30;;;;;;;14.15;100.00;101539.69;5013604;28;20227;-75
2021/09/01 02:27:04;;;;;;;11.20;6.07;;;;;;;14.17;100.00;101529.22;5013930;28;20177;-75
2021/09/01 02:29:29;;;;;;;7.57;4.67;;;;;;;14.13;100.00;101529.00;5013817;28;20177;-76
2021/09/01 02:31:54;;;;;;;7.90;4.30;;;;;;;14.10;100.00;101517.84;5013581;28;20634;-76
2021/09/01 02:34:19;;;;;;;4.23;3.83;;;;;;;14.09;100.00;101522.53;5013615;28;20700;-75
2021/09/01 02:36:45;;;;;;;5.07;3.87;;;;;;;14.07;100.00;101530.25;5013613;28;20673;-75
2021/09/01 02:39:10;;;;;;;8.57;4.33;;;;;;;14.06;100.00;101525.06;5013641;28;20260;-76
2021/09/01 02:41:35;;;;;;;6.47;4.20;;;;;;;14.06;100.00;101533.31;5013630;28;20676;-75
2021/09/01 02:44:01;;;;;;;7.93;4.13;;;;;;;14.04;100.00;101533.63;5013399;28;20791;-76
2021/09/01 02:46:26;;;;;;;9.77;4.27;;;;;;;14.04;100.00;101541.06;5013606;28;20582;-76
2021/09/01 02:48:52;;;;;;;7.90;4.00;;;;;;;14.05;100.00;101548.19;5013635;28;20657;-75
2021/09/01 02:51:17;;;;;;;9.10;4.93;;;;;;;14.05;100.00;101540.75;5013290;28;20746;-75
2021/09/01 02:53:42;;;;;;;4.33;3.93;;;;;;;14.04;100.00;101541.06;5013151;28;20271;-75
2021/09/01 02:56:08;;;;;;;7.13;4.30;;;;;;;14.05;100.00;101542.69;5012034;28;20547;-76
2021/09/01 02:58:33;;;;;;;11.73;4.33;;;;;;;14.03;100.00;101547.66;5011993;28;20548;-76
2021/09/01 03:00:58;;;;;;;5.90;4.47;;;;;;;14.02;100.00;101543.28;5011921;28;20249;-75
2021/09/01 03:03:24;;;;;;;8.47;5.27;;;;;;;14.00;100.00;101535.34;5013498;28;20176;-76
2021/09/01 03:05:49;;;;;;;15.00;4.43;;;;;;;14.03;100.00;101542.97;5013131;28;20185;-76
2021/09/01 03:08:14;;;;;;;6.30;4.50;;;;;;;14.02;100.00;101548.78;5013207;28;20188;-75
2021/09/01 03:10:40;;;;;;;6.87;4.90;;;;;;;13.98;100.00;101545.84;5013061;28;20239;-75
2021/09/01 03:13:05;;;;;;;4.13;3.73;;;;;;;13.96;100.00;101543.41;5013174;28;20264;-76
2021/09/01 03:15:31;;;;;;;10.23;4.80;;;;;;;13.95;100.00;101546.47;5013078;28;20172;-76
2021/09/01 03:17:56;;;;;;;8.80;5.13;;;;;;;13.96;100.00;101546.16;5012954;28;20180;-76
2021/09/01 03:20:22;;;;;;;10.57;6.43;;;;;;;13.96;100.00;101548.09;5012767;28;20181;-76
2021/09/01 03:22:47;;;;;;;9.27;4.77;;;;;;;13.99;100.00;101547.47;5012935;28;20176;-76
2021/09/01 03:25:13;;;;;;;7.90;4.80;;;;;;;13.94;100.00;101537.41;5012756;28;20537;-76
2021/09/01 03:27:38;;;;;;;5.10;4.37;;;;;;;13.95;100.00;101543.72;5012861;28;20656;-76
2021/09/01 03:30:05;;;;;;;9.83;5.10;;;;;;;13.94;100.00;101537.41;5012734;28;20339;-75
2021/09/01 03:32:30;;;;;;;12.20;4.93;;;;;;;13.94;100.00;101531.91;5012886;28;20181;-75
2021/09/01 03:34:56;;;;;;;9.30;5.30;;;;;;;13.91;100.00;101539.97;5012675;28;20185;-76
2021/09/01 03:37:21;;;;;;;6.70;4.47;;;;;;;13.91;100.00;101537.22;5012999;28;20200;-75
2021/09/01 03:39:47;;;;;;;11.20;5.77;;;;;;;13.92;100.00;101536.09;5012963;28;20540;-76
2021/09/01 03:42:12;;;;;;;6.47;4.70;;;;;;;13.91;100.00;101539.97;5012617;28;20588;-76
2021/09/01 03:44:37;;;;;;;9.70;4.50;;;;;;;13.90;100.00;101533.66;5012478;28;20320;-76
2021/09/01 03:47:03;;;;;;;8.73;5.43;;;;;;;13.94;100.00;101542.91;5012724;28;20403;-76
2021/09/01 03:49:28;;;;;;;7.03;4.83;;;;;;;13.92;100.00;101538.84;5013160;28;20775;-76
2021/09/01 03:51:54;;;;;;;15.10;4.90;;;;;;;13.91;100.00;101572.94;5012518;28;20212;-75
2021/09/01 03:54:19;;;;;;;12.30;5.33;;;;;;;13.91;100.00;101581.16;5012689;28;20252;-75
2021/09/01 03:56:45;;;;;;;6.20;5.07;;;;;;;13.90;100.00;101565.81;5012547;28;20341;-75
2021/09/01 03:59:10;;;;;;;10.03;5.17;;;;;;;13.90;100.00;101576.78;5012581;28;20331;-76
2021/09/01 04:01:36;;;;;;;7.57;4.73;;;;;;;13.88;100.00;101568.84;5013036;28;20181;-76
2021/09/01 04:04:02;;;;;;;5.50;4.47;;;;;;;13.90;100.00;101569.38;5012079;28;20173;-75
2021/09/01 04:06:28;;;;;;;6.27;4.60;;;;;;;13.93;100.00;101573.44;5011212;28;20188;-75
2021/09/01 04:08:53;;;;;;;6.40;4.07;;;;;;;13.89;100.00;101570.50;5013392;28;20226;-75
2021/09/01 04:11:18;;;;;;;7.23;5.63;;;;;;;13.88;100.00;101568.03;5013020;28;20210;-74
2021/09/01 04:13:44;;;;;;;8.07;4.37;;;;;;;13.86;100.00;101560.09;5012918;28;20196;-75
2021/09/01 04:16:09;;;;;;;9.00;4.60;;;;;;;13.87;100.00;101574.63;5011992;28;20239;-74
2021/09/01 04:18:35;;;;;;;13.90;4.73;;;;;;;13.88;100.00;101562.53;5011823;28;20192;-75
2021/09/01 04:21:00;;;;;;;6.53;4.47;;;;;;;13.87;100.00;101558.16;5011949;28;20668;-74
2021/09/01 04:23:26;;;;;;;7.67;4.43;;;;;;;13.86;100.00;101556.53;5011654;28;20180;-75
2021/09/01 04:25:52;;;;;;;8.80;3.93;;;;;;;13.88;100.00;101554.28;5011866;28;20231;-75
2021/09/01 04:28:17;;;;;;;8.93;4.00;;;;;;;13.87;100.00;101563.66;5011607;28;20264;-74
2021/09/01 04:30:42;;;;;;;15.70;5.07;;;;;;;13.87;100.00;101571.88;5010227;28;20242;-75
2021/09/01 04:33:08;;;;;;;14.77;4.20;;;;;;;13.86;100.00;101564.78;5011569;28;20216;-75
2021/09/01 04:35:33;;;;;;;8.33;4.77;;;;;;;13.88;100.00;101562.53;5011427;28;20185;-76
2021/09/01 04:37:58;;;;;;;5.77;3.93;;;;;;;13.88;100.00;101573.50;5012057;28;20587;-75
2021/09/01 04:40:23;;;;;;;8.50;4.20;;;;;;;13.91;100.00;101571.00;5011435;28;20691;-76
2021/09/01 04:42:49;;;;;;;6.03;4.40;;;;;;;13.93;100.00;101584.41;5011374;28;20598;-76
2021/09/01 04:45:14;;;;;;;5.30;4.07;;;;;;;13.94;100.00;101621.75;5009736;28;20186;-75
2021/09/01 04:47:39;;;;;;;5.43;4.60;;;;;;;13.95;100.00;101587.66;5011265;28;20211;-76
2021/09/01 04:50:05;;;;;;;5.13;3.67;;;;;;;13.96;100.00;101583.81;5011227;28;20545;-75
2021/09/01 04:52:31;;;;;;;7.33;4.50;;;;;;;13.94;100.00;101577.81;5011056;28;20180;-75
2021/09/01 04:54:57;;;;;;;5.83;5.10;;;;;;;13.92;100.00;101583.59;5009631;28;20180;-76
2021/09/01 04:57:22;;;;;;;12.60;5.53;;;;;;;13.90;100.00;101576.78;5010965;28;20636;-75
2021/09/01 04:59:47;;;;;;;6.27;4.40;;;;;;;13.91;100.00;101581.16;5011076;28;20234;-75
2021/09/01 05:02:13;;;;;;;8.30;5.80;;;;;;;13.92;100.00;101594.59;5011023;28;20188;-75
2021/09/01 05:04:38;;;;;;;6.97;4.30;;;;;;;13.92;100.00;101591.84;5010806;28;20181;-75
2021/09/01 05:07:03;;;;;;;7.40;4.47;;;;;;;13.93;100.00;101587.97;5011006;28;20176;-76
2021/09/01 05:09:29;;;;;;;8.13;4.77;;;;;;;13.95;100.00;101585.75;5011118;28;20172;-76
2021/09/01 05:11:54;;;;;;;9.13;5.17;;;;;;;13.96;100.00;101590.09;5010823;28;20691;-75
2021/09/01 05:14:19;;;;;;;6.57;4.93;;;;;;;14.00;100.00;101595.81;5010799;28;20258;-75
2021/09/01 05:16:45;;;;;;;9.20;4.93;;;;;;;14.03;100.00;101608.91;5010909;28;20640;-74
2021/09/01 05:19:11;;;;;;;8.53;5.37;;;;;;;14.07;100.00;101607.22;5010801;28;20279;-76
2021/09/01 05:21:41;;;;;;;10.43;4.63;;;;;;;14.10;100.00;101594.78;5012823;28;20642;-80
2021/09/01 05:24:11;;;;;;;11.53;5.63;;;;;;;14.10;100.00;101611.28;5014628;28;20184;-75
2021/09/01 05:26:41;;;;;;;7.40;4.50;;;;;;;14.11;100.00;101610.16;5014873;28;20570;-76
2021/09/01 05:29:06;;;;;;;8.67;4.43;;;;;;;14.08;100.00;101616.28;5014985;28;20563;-75
2021/09/01 05:31:32;;;;;;;5.83;4.67;;;;;;;14.07;100.00;101609.97;5014741;28;20205;-75
2021/09/01 05:34:02;;;;;;;5.97;4.97;;;;;;;14.08;100.00;101622.56;5014573;28;20231;-75
2021/09/01 05:36:29;;;;;;;14.13;4.60;;;;;;;14.09;100.00;101615.97;5015015;28;20252;-75
2021/09/01 05:38:56;;;;;;;5.57;4.30;;;;;;;14.15;100.00;101622.16;5014488;28;20187;-75
2021/09/01 05:41:21;;;;;;;8.50;4.87;;;;;;;14.15;100.00;101619.41;5014621;28;20208;-74
2021/09/01 05:43:50;;;;;;;6.30;4.37;;;;;;;14.16;100.00;101619.09;5014566;28;20638;-74
2021/09/01 05:46:17;;;;;;;4.93;4.33;;;;;;;14.18;100.00;101622.38;5014558;28;20176;-75
2021/09/01 05:48:45;;;;;;;8.73;4.30;;;;;;;14.21;100.00;101620.94;5001961;28;20273;-78
2021/09/01 05:51:10;;;;;;;5.17;4.43;;;;;;;14.22;100.00;101620.63;4998904;28;20665;-77
2021/09/01 05:53:35;;;;;;;7.50;4.90;;;;;;;14.27;100.00;101626.00;4994777;28;20176;-77
2021/09/01 05:56:06;;;;;;;8.47;5.13;;;;;;;14.29;100.00;101618.28;4994728;28;20183;-76
2021/09/01 05:58:37;;;;;;;5.67;4.10;;;;;;;14.38;100.00;101617.56;4994782;28;20581;-78
2021/09/01 06:01:04;;;;;;;6.03;3.50;;;;;;;14.40;100.00;101626.31;4994828;28;20613;-76
2021/09/01 06:03:32;;;;;;;5.93;3.53;;;;;;;14.42;100.00;101618.56;4994630;28;20204;-76
2021/09/01 06:06:00;;;;;;;7.27;4.03;;;;;;;14.43;100.00;101620.19;4994694;28;20633;-76
2021/09/01 06:08:32;;;;;;;5.97;3.97;;;;;;;14.44;100.00;101619.09;4994626;28;20270;-76
2021/09/01 06:10:59;;;;;;;21.27;4.23;;;;;;;14.43;100.00;101617.44;4994502;28;20224;-75
2021/09/01 06:13:24;;;;;;;7.00;3.60;;;;;;;14.44;100.00;101621.84;4994437;28;20184;-77
2021/09/01 06:15:50;;;;;;;7.47;4.30;;;;;;;14.48;100.00;101623.69;4994347;28;20177;-77
2021/09/01 06:18:16;;;;;;;7.77;3.93;;;;;;;14.46;100.00;101622.34;4994293;28;20197;-76
2021/09/01 06:20:41;;;;;;;5.00;3.73;;;;;;;14.45;100.00;101623.47;4994653;28;20169;-78
2021/09/01 06:23:07;;;;;;;5.80;3.70;;;;;;;14.42;100.00;101624.06;5010994;28;20206;-76
2021/09/01 06:25:33;;;;;;;8.97;4.20;;;;;;;14.41;100.00;101619.69;5013881;28;20176;-77
2021/09/01 06:28:00;;;;;;;5.77;3.57;;;;;;;14.42;100.00;101624.88;5014000;28;20583;-75
2021/09/01 06:30:26;;;;;;;6.10;4.07;;;;;;;14.42;100.00;101624.88;5012463;28;20208;-76
2021/09/01 06:32:51;;;;;;;7.47;4.17;;;;;;;14.41;100.00;101628.75;5013002;28;20208;-76
2021/09/01 06:35:17;;;;;;;5.13;3.83;;;;;;;14.42;100.00;101624.06;5013459;28;20264;-80
2021/09/01 06:37:44;;;;;;;7.73;3.90;;;;;;;14.51;100.00;101631.31;5013434;28;20223;-77
2021/09/01 06:40:12;;;;;;;5.33;3.73;;;;;;;14.58;100.00;101631.69;5013560;28;20558;-76
2021/09/01 06:42:38;;;;;;;6.13;4.03;;;;;;;14.57;100.00;101634.75;5013573;28;20682;-75
2021/09/01 06:45:04;;;;;;;8.67;4.33;;;;;;;14.57;100.00;101630.06;5013429;28;20176;-75
2021/09/01 06:47:44;;;;;;;6.10;4.40;;;;;;;14.61;100.00;101637.69;5013425;28;20173;-76
2021/09/01 06:50:11;;;;;;;6.07;4.07;;;;;;;14.61;100.00;101643.19;5013674;28;20183;-76
2021/09/01 06:52:37;;;;;;;3.83;3.47;;;;;;;14.63;100.00;101639.03;5013284;28;20173;-76
2021/09/01 06:55:05;;;;;;;4.07;3.17;;;;;;;14.67;100.00;101642.78;5013211;28;20696;-76
2021/09/01 06:57:31;;;;;;;6.93;3.57;;;;;;;14.65;100.00;101646.97;5013320;28;20193;-76
2021/09/01 06:59:56;;;;;;;6.30;3.47;;;;;;;14.62;100.00;101653.09;5013342;28;20181;-76
2021/09/01 07:02:22;;;;;;;10.23;3.93;;;;;;;14.70;100.00;101655.91;5013479;28;20219;-76
2021/09/01 07:04:47;;;;;;;9.27;4.10;;;;;;;14.73;100.00;101657.22;5012841;28;20204;-77
2021/09/01 07:07:12;;;;;;;5.20;3.93;;;;;;;14.78;100.00;101662.63;5013059;28;20176;-75
2021/09/01 07:09:38;;;;;;;7.87;3.53;;;;;;;14.87;100.00;101656.06;5013191;28;20180;-76
2021/09/01 07:12:03;;;;;;;5.10;4.27;;;;;;;14.94;100.00;101654.84;5012832;28;20291;-77
2021/09/01 07:14:29;;;;;;;12.13;4.07;;;;;;;15.04;100.00;101662.84;5012992;28;20272;-77
2021/09/01 07:16:54;;;;;;;5.13;3.77;;;;;;;15.17;100.00;101657.28;5011855;28;20223;-75
2021/09/01 07:19:19;;;;;;;5.80;4.10;;;;;;;15.27;100.00;101669.19;5012649;28;20291;-75
2021/09/01 07:21:45;;;;;;;5.37;3.27;;;;;;;15.26;100.00;101656.53;5013211;28;20192;-76
2021/09/01 07:24:10;;;;;;;4.63;3.40;;;;;;;15.33;100.00;101660.47;5012483;28;20590;-76
2021/09/01 07:26:35;;;;;;;5.03;3.40;;;;;;;15.37;100.00;101661.50;5012685;28;20184;-76
2021/09/01 07:29:01;;;;;;;6.73;4.13;;;;;;;15.38;100.00;101667.81;5012751;28;20671;-76
2021/09/01 07:31:30;;;;;;;5.70;3.13;;;;;;;15.35;100.00;101671.19;5012796;28;20671;-89
2021/09/01 07:33:55;;;;;;;6.90;3.50;;;;;;;15.29;100.00;101673.25;5011452;28;20177;-76
2021/09/01 07:36:21;;;;;;;5.23;3.10;;;;;;;15.33;100.00;101671.47;5012497;28;20183;-76
2021/09/01 07:38:46;;;;;;;13.10;4.40;;;;;;;15.35;100.00;101672.00;5012478;28;20401;-76
2021/09/01 07:41:11;;;;;;;7.77;3.80;;;;;;;15.33;100.00;101665.97;5012533;28;20213;-75
2021/09/01 07:43:37;;;;;;;4.37;3.80;;;;;;;15.30;100.00;101666.59;5012079;28;20315;-76
2021/09/01 07:46:02;;;;;;;7.20;3.57;;;;;;;15.40;100.00;101666.38;5010933;28;20231;-75
2021/09/01 07:48:27;;;;;;;15.20;4.50;;;;;;;15.56;100.00;101652.19;5011818;28;20175;-75
2021/09/01 07:50:53;;;;;;;5.93;3.97;;;;;;;15.71;100.00;101654.59;5011772;28;20279;-76
2021/09/01 07:53:18;;;;;;;8.07;4.57;;;;;;;15.74;100.00;101663.03;5011277;28;20185;-76
2021/09/01 07:55:44;;;;;;;5.20;4.30;;;;;;;15.70;100.00;101664.78;5011387;28;20177;-76
2021/09/01 07:58:09;;;;;;;6.17;3.60;;;;;;;15.79;100.00;101658.53;5011594;28;20318;-75
2021/09/01 08:00:34;;;;;;;8.33;4.73;;;;;;;15.88;100.00;101665.69;5010256;28;20179;-75
2021/09/01 08:03:00;;;;;;;6.87;3.87;;;;;;;15.85;100.00;101666.31;5011523;28;20251;-76
2021/09/01 08:05:46;;;;;;;4.73;3.87;;;;;;;15.87;100.00;101652.22;5170721;27;20537;-76
2021/09/01 08:08:11;;;;;;;8.23;4.10;;;;;;;15.90;100.00;101660.66;5149668;27;20556;-76
2021/09/01 08:10:37;;;;;;;4.00;3.53;;;;;;;15.89;100.00;101656.28;5149763;27;20208;-76
2021/09/01 08:13:02;;;;;;;7.90;4.93;;;;;;;15.96;100.00;101669.63;5131111;27;20202;-76
2021/09/01 08:15:27;;;;;;;4.83;4.00;;;;;;;15.93;100.00;101673.03;5149420;27;20601;-73
2021/09/01 08:17:53;;;;;;;6.93;4.47;;;;;;;15.98;100.00;101673.69;5131077;27;20194;-74
2021/09/01 08:20:18;;;;;;;11.53;4.80;;;;;;;15.94;100.00;101669.13;5149673;27;20172;-76
2021/09/01 08:22:44;;;;;;;5.80;4.03;;;;;;;16.15;100.00;101675.69;5149484;27;20183;-77
2021/09/01 08:25:10;;;;;;;7.07;3.83;;;;;;;16.26;100.00;101678.97;5149221;27;20233;-77
2021/09/01 08:27:36;;;;;;;5.67;4.87;;;;;;;16.25;100.00;101675.41;5149386;27;20179;-76
2021/09/01 08:30:03;;;;;;;6.93;4.40;;;;;;;16.25;100.00;101680.13;5149361;27;20172;-76
2021/09/01 08:32:28;;;;;;;8.50;4.43;;;;;;;16.36;100.00;101682.28;5149323;27;20168;-74
2021/09/01 08:34:53;;;;;;;5.07;4.57;;;;;;;16.46;100.00;101683.91;5149533;27;20175;-74
2021/09/01 08:37:19;;;;;;;5.30;4.80;;;;;;;16.62;100.00;101685.06;5149637;27;20168;-74
2021/09/01 08:39:45;;;;;;;5.93;4.50;;;;;;;16.50;99.42;101675.81;5149015;27;20168;-74
2021/09/01 08:42:10;;;;;;;6.23;5.63;;;;;;;16.42;100.00;101679.34;5148910;27;20164;-75
2021/09/01 08:44:36;;;;;;;7.63;4.93;;;;;;;16.43;100.00;101681.78;5148563;27;20207;-74
2021/09/01 08:47:02;;;;;;;6.67;3.87;;;;;;;16.53;100.00;101687.00;5148775;27;20175;-75
2021/09/01 08:49:30;;;;;;;10.30;5.40;;;;;;;16.63;100.00;101685.88;5148751;27;20175;-74
2021/09/01 08:51:57;;;;;;;11.27;4.67;;;;;;;16.72;99.89;101688.69;5148302;27;20168;-75
2021/09/01 08:54:23;;;;;;;4.87;4.37;;;;;;;16.68;97.79;101680.25;5144383;27;20542;-74
2021/09/01 08:56:48;;;;;;;6.97;4.73;;;;;;;16.56;97.12;101680.84;5148545;27;20260;-75
2021/09/01 08:59:14;;;;;;;5.77;4.67;;;;;;;16.61;99.32;101683.44;5148450;27;20639;-73
2021/09/01 09:01:53;;;;;;;5.57;4.70;;;;;;;16.74;99.17;101689.19;5147856;27;20168;-74
2021/09/01 09:04:44;;;;;;;7.47;4.63;;;;;;;16.79;99.41;101691.81;5148010;27;20670;-76
2021/09/01 09:07:09;;;;;;;6.37;4.73;;;;;;;16.73;98.38;101693.09;5143387;27;20184;-74
2021/09/01 09:09:40;;;;;;;6.93;5.60;;;;;;;16.72;98.29;101685.94;5148545;27;20168;-74
2021/09/01 09:12:07;;;;;;;5.20;3.90;;;;;;;16.77;97.80;101685.78;5148035;27;20160;-74
2021/09/01 09:14:38;;;;;;;5.07;4.30;;;;;;;16.72;97.21;101681.22;5148126;27;20228;-77
2021/09/01 09:17:08;;;;;;;5.80;4.87;;;;;;;16.71;99.17;101687.88;5133987;27;20627;-74
2021/09/01 09:19:52;;;;;;;12.10;4.33;;;;;;;16.81;99.39;101689.53;5134991;27;20236;-76
2021/09/01 09:22:30;;;;;;;4.17;3.77;;;;;;;16.73;96.00;101693.09;5134386;27;20509;-75
2021/09/01 09:25:10;;;;;;;6.37;4.40;;;;;;;16.66;97.64;101688.84;5134207;27;20200;-74
2021/09/01 09:27:57;;;;;;;3.63;3.23;;;;;;;16.67;99.45;101692.44;5134558;27;20169;-74
2021/09/01 09:30:37;;;;;;;6.30;4.53;;;;;;;16.63;99.99;101686.69;5134438;27;20153;-73
2021/09/01 09:33:18;;;;;;;4.93;4.27;;;;;;;16.63;98.39;101683.13;5134267;27;20651;-74
2021/09/01 09:35:59;;;;;;;8.90;4.03;;;;;;;16.66;97.98;101694.34;5134022;27;20172;-76
2021/09/01 09:38:27;;;;;;;8.50;4.87;;;;;;;16.74;98.18;101694.69;5134454;27;20183;-76
2021/09/01 09:40:53;;;;;;;6.23;4.57;;;;;;;16.94;98.93;101694.09;5134285;27;20169;-76
2021/09/01 09:43:21;;;;;;;5.10;4.30;;;;;;;17.02;97.85;101698.78;5133888;27;20228;-74
2021/09/01 09:45:48;;;;;;;6.27;4.60;;;;;;;17.04;97.03;101702.03;5133782;27;20173;-74
2021/09/01 09:48:14;;;;;;;4.97;4.30;;;;;;;17.13;97.15;101699.28;5134356;27;20168;-73
2021/09/01 09:50:49;;;;;;;5.83;4.40;;;;;;;17.20;95.98;101700.41;5133867;27;20172;-74
2021/09/01 09:53:48;;;;;;;5.27;3.53;;;;;;;17.34;96.82;101700.25;5134234;27;20618;-74
2021/09/01 09:56:29;;;;;;;5.70;4.30;;;;;;;17.41;92.98;101703.34;5074627;27;20197;-74
2021/09/01 09:58:58;;;;;;;4.53;3.73;;;;;;;17.53;93.85;101705.44;5120065;27;20211;-74
2021/09/01 10:01:25;;;;;;;7.83;4.83;;;;;;;17.69;95.16;101701.06;5127983;27;20595;-74
2021/09/01 10:03:51;;;;;;;7.53;4.93;;;;;;;17.59;90.34;101693.06;5133106;27;20212;-74
2021/09/01 10:06:18;;;;;;;7.23;3.93;;;;;;;17.81;92.52;101697.63;5133750;27;20532;-74
2021/09/01 10:08:49;;;;;;;4.03;3.60;;;;;;;17.57;90.41;101697.31;5133670;27;20169;-73
2021/09/01 10:11:16;;;;;;;5.50;3.77;;;;;;;17.50;90.46;101693.09;5137835;27;20185;-74
2021/09/01 10:13:46;;;;;;;7.00;4.23;;;;;;;17.60;91.89;101694.69;5133832;27;20264;-73
2021/09/01 10:16:36;;;;;;;5.93;3.83;;;;;;;17.57;90.83;101736.00;5134126;27;20169;-73
2021/09/01 10:19:02;;;;;;;4.90;4.40;;;;;;;17.44;92.37;101737.78;5134137;27;20199;-73
2021/09/01 10:21:33;;;;;;;7.50;4.37;;;;;;;17.23;91.38;101732.13;5133858;27;20208;-73
2021/09/01 10:24:16;;;;;;;5.40;4.37;;;;;;;17.63;93.67;101741.00;5133508;27;20204;-74
2021/09/01 10:26:41;;;;;;;6.83;3.43;;;;;;;17.72;90.09;101727.22;5133625;27;20221;-73
2021/09/01 10:29:44;;;;;;;4.87;4.00;;;;;;;17.54;89.73;101801.03;5133673;27;20640;-72
2021/09/01 10:32:26;;;;;;;3.57;3.27;;;;;;;17.47;92.30;101737.94;5134315;27;20219;-73
2021/09/01 10:35:17;;;;;;;6.37;3.93;;;;;;;17.47;91.63;101723.31;5133768;27;20268;-73
2021/09/01 10:37:56;;;;;;;5.13;3.80;;;;;;;17.76;93.13;101717.13;5133522;27;20453;-73
2021/09/01 10:40:21;;;;;;;4.60;4.20;;;;;;;17.86;89.83;101721.50;5133692;27;20177;-73
2021/09/01 10:42:50;;;;;;;4.03;3.63;;;;;;;17.98;85.94;101716.91;5133813;27;20690;-73
2021/09/01 10:45:30;;;;;;;3.97;3.33;;;;;;;17.76;86.42;101711.59;5133264;27;20345;-73
2021/09/01 10:47:59;;;;;;;4.53;3.57;;;;;;;17.63;87.16;101702.31;5132368;27;20172;-73
2021/09/01 10:50:33;;;;;;;4.30;3.57;;;;;;;17.74;89.54;101706.41;5133710;27;20179;-73
2021/09/01 10:53:24;;;;;;;4.10;3.70;;;;;;;17.91;90.43;101707.50;5133510;27;20169;-73
2021/09/01 10:55:51;;;;;;;5.30;3.73;;;;;;;17.90;89.23;101700.34;5133394;27;20157;-73
2021/09/01 10:58:20;;;;;;;4.47;4.07;;;;;;;17.96;89.38;101710.91;5133162;27;20533;-73
2021/09/01 11:00:52;;;;;;;5.70;3.57;;;;;;;18.10;87.56;101705.16;5133184;27;20461;-73
2021/09/01 11:03:26;;;;;;;3.63;2.90;;;;;;;18.08;89.12;101701.88;5133315;27;20173;-73
2021/09/01 11:05:52;;;;;;;8.10;4.13;;;;;;;17.94;85.23;101702.13;5133636;27;20202;-73
2021/09/01 11:08:17;;;;;;;5.87;3.70;;;;;;;17.87;87.60;101704.59;5133318;27;20196;-73
2021/09/01 11:10:58;;;;;;;4.80;3.33;;;;;;;17.87;87.63;101696.28;5133147;27;20173;-73
2021/09/01 11:13:39;;;;;;;11.03;3.60;;;;;;;18.05;87.54;101703.38;5128925;27;20259;-73
2021/09/01 11:16:19;;;;;;;6.03;3.70;;;;;;;18.00;88.28;101698.03;5131249;27;20178;-73
2021/09/01 11:19:01;;;;;;;5.20;3.73;;;;;;;18.01;89.15;101699.66;5126525;27;20532;-73